Time;durP1;ratioP1;P1;durP2;ratioP2;P2;SDS_P1;SDS_P2;PMS_P1;PMS_P2;Temp;Humidity;BMP_temperature;BMP_pressure;BME280_temperature;BME280_humidity;BME280_pressure;Samples;Min_cycle;Max_cycle;Signal;HPM_P1;HPM_P2
2022/08/27 00:01:10;;;;;;;1.92;1.20;;;24.70;57.60;;;;;;5054278;28;20513;-64
2022/08/27 00:03:36;;;;;;;1.30;1.05;;;24.70;57.60;;;;;;5035474;28;20194;-64
2022/08/27 00:06:02;;;;;;;1.63;1.20;;;24.70;57.60;;;;;;5054197;28;20175;-64
2022/08/27 00:08:28;;;;;;;1.70;1.10;;;24.70;57.70;;;;;;5053935;28;20621;-64
2022/08/27 00:10:54;;;;;;;1.83;0.98;;;24.70;57.60;;;;;;5053433;28;20167;-64
2022/08/27 00:13:19;;;;;;;1.58;1.20;;;24.70;58.30;;;;;;5054431;28;20313;-64
2022/08/27 00:15:45;;;;;;;1.75;1.40;;;24.70;57.60;;;;;;5053155;28;20297;-65
2022/08/27 00:18:10;;;;;;;1.50;1.10;;;24.70;57.60;;;;;;5053876;28;20250;-65
2022/08/27 00:20:36;;;;;;;2.33;1.30;;;24.60;57.60;;;;;;5053677;28;20543;-65
2022/08/27 00:23:01;;;;;;;1.17;1.08;;;24.60;57.50;;;;;;5053123;28;20226;-64
2022/08/27 00:25:28;;;;;;;1.40;1.13;;;24.70;57.60;;;;;;5053660;28;20580;-64
2022/08/27 00:27:54;;;;;;;1.75;1.15;;;24.70;57.60;;;;;;5053496;28;20185;-64
2022/08/27 00:30:20;;;;;;;1.27;1.17;;;24.60;57.60;;;;;;5052012;28;20175;-64
2022/08/27 00:32:46;;;;;;;2.10;1.33;;;24.70;57.50;;;;;;5053574;28;20199;-64
2022/08/27 00:35:12;;;;;;;2.28;1.30;;;24.70;57.50;;;;;;5053914;28;20258;-64
2022/08/27 00:37:38;;;;;;;2.30;1.20;;;24.70;57.50;;;;;;5052994;28;20178;-63
2022/08/27 00:40:05;;;;;;;1.90;1.33;;;24.60;57.50;;;;;;5053383;28;20245;-64
2022/08/27 00:42:31;;;;;;;1.25;1.10;;;24.60;57.50;;;;;;5053358;28;20728;-64
2022/08/27 00:44:58;;;;;;;1.88;1.20;;;24.60;57.50;;;;;;5052963;28;20191;-64
2022/08/27 00:47:24;;;;;;;1.17;1.08;;;24.60;57.40;;;;;;5053150;28;20171;-63
2022/08/27 00:49:55;;;;;;;2.60;1.30;;;24.60;57.40;;;;;;5053257;28;20183;-64
2022/08/27 00:52:30;;;;;;;3.00;1.50;;;24.60;57.50;;;;;;5034960;28;20194;-63
2022/08/27 00:55:26;;;;;;;1.45;1.00;;;24.60;57.50;;;;;;5035192;28;20298;-63
2022/08/27 00:58:14;;;;;;;2.10;1.10;;;24.60;57.50;;;;;;5033281;28;20556;-63
2022/08/27 01:00:40;;;;;;;2.42;1.10;;;24.60;57.40;;;;;;5052873;28;20748;-64
2022/08/27 01:03:06;;;;;;;1.70;1.35;;;24.60;57.40;;;;;;5052808;28;20171;-64
2022/08/27 01:05:31;;;;;;;1.33;1.10;;;24.60;57.40;;;;;;5052203;28;20281;-64
2022/08/27 01:08:00;;;;;;;2.30;1.25;;;24.60;57.40;;;;;;5034810;28;20171;-64
2022/08/27 01:10:26;;;;;;;1.58;1.30;;;24.60;57.40;;;;;;5035264;28;20178;-63
2022/08/27 01:12:53;;;;;;;2.90;1.10;;;24.60;57.30;;;;;;5034150;28;20178;-64
2022/08/27 01:15:20;;;;;;;1.08;0.98;;;24.60;57.40;;;;;;5052899;28;20214;-64
2022/08/27 01:17:46;;;;;;;1.52;1.33;;;24.60;57.40;;;;;;5052690;28;20241;-64
2022/08/27 01:20:27;;;;;;;1.45;1.20;;;24.60;57.40;;;;;;5034292;28;20175;-65
2022/08/27 01:23:21;;;;;;;1.92;1.10;;;24.60;57.30;;;;;;5034526;28;20231;-64
2022/08/27 01:25:47;;;;;;;1.48;1.20;;;24.60;57.40;;;;;;5023087;28;20206;-63
2022/08/27 01:28:12;;;;;;;2.00;1.30;;;24.60;57.40;;;;;;5034284;28;20167;-64
2022/08/27 01:30:39;;;;;;;1.90;1.40;;;24.60;57.30;;;;;;5034885;28;20175;-63
2022/08/27 01:33:16;;;;;;;1.63;1.20;;;24.60;57.40;;;;;;5051647;28;20186;-63
2022/08/27 01:35:45;;;;;;;1.58;1.38;;;24.60;57.30;;;;;;5052542;28;20242;-64
2022/08/27 01:38:10;;;;;;;1.75;1.10;;;24.60;57.40;;;;;;5052719;28;20313;-64
2022/08/27 01:40:36;;;;;;;2.15;1.20;;;24.50;57.30;;;;;;5033883;28;20266;-64
2022/08/27 01:43:02;;;;;;;1.33;1.23;;;24.50;57.30;;;;;;5051976;28;20175;-64
2022/08/27 01:45:37;;;;;;;2.45;1.30;;;24.60;57.30;;;;;;5052363;28;20179;-64
2022/08/27 01:48:03;;;;;;;1.88;1.38;;;24.60;57.30;;;;;;5051693;28;20174;-63
2022/08/27 01:50:31;;;;;;;1.08;0.98;;;24.50;57.30;;;;;;5052302;28;20177;-63
2022/08/27 01:52:59;;;;;;;2.75;1.30;;;24.50;57.30;;;;;;5052095;28;20266;-63
2022/08/27 01:55:25;;;;;;;3.13;1.40;;;24.60;57.30;;;;;;5033556;28;20268;-64
2022/08/27 01:57:51;;;;;;;1.20;1.10;;;24.50;57.30;;;;;;5051956;28;20697;-64
2022/08/27 02:00:25;;;;;;;2.03;1.40;;;24.50;57.30;;;;;;5052143;28;20587;-64
2022/08/27 02:02:50;;;;;;;2.15;1.40;;;24.50;57.30;;;;;;5051529;28;20175;-64
2022/08/27 02:05:16;;;;;;;1.65;1.52;;;24.50;57.30;;;;;;5052356;28;20206;-64
2022/08/27 02:07:42;;;;;;;2.22;1.25;;;24.50;57.30;;;;;;5052201;28;20182;-63
2022/08/27 02:10:09;;;;;;;1.55;1.35;;;24.50;57.30;;;;;;5051391;28;20271;-64
2022/08/27 02:12:34;;;;;;;3.17;1.40;;;24.50;57.30;;;;;;5051852;28;20175;-64
2022/08/27 02:15:00;;;;;;;2.28;1.50;;;24.50;57.30;;;;;;5051837;28;20249;-64
2022/08/27 02:17:25;;;;;;;1.65;1.25;;;24.50;57.30;;;;;;5051478;28;20277;-64
2022/08/27 02:19:52;;;;;;;2.20;1.20;;;24.50;57.30;;;;;;5052026;28;20194;-64
2022/08/27 02:22:17;;;;;;;2.20;1.20;;;24.50;57.30;;;;;;5051288;28;20179;-64
2022/08/27 02:24:43;;;;;;;1.42;1.20;;;24.50;57.60;;;;;;5051923;28;20175;-64
2022/08/27 02:27:08;;;;;;;2.13;1.40;;;24.50;57.30;;;;;;5051901;28;20175;-64
2022/08/27 02:29:34;;;;;;;1.52;1.40;;;24.50;57.30;;;;;;5051190;28;20190;-63
2022/08/27 02:32:00;;;;;;;1.42;1.25;;;24.40;57.30;;;;;;5051774;28;20179;-63
2022/08/27 02:34:27;;;;;;;1.88;1.50;;;24.50;57.30;;;;;;5051744;28;20214;-64
2022/08/27 02:36:52;;;;;;;1.83;1.45;;;24.40;57.30;;;;;;5050948;28;20183;-64
2022/08/27 02:39:18;;;;;;;1.42;1.08;;;24.40;57.30;;;;;;5051650;28;20630;-64
2022/08/27 02:41:43;;;;;;;1.38;1.20;;;24.40;57.30;;;;;;5051401;28;20175;-64
2022/08/27 02:44:10;;;;;;;2.42;1.40;;;24.40;57.30;;;;;;5051505;28;20195;-64
2022/08/27 02:46:36;;;;;;;1.48;1.38;;;24.40;57.30;;;;;;5051405;28;20577;-64
2022/08/27 02:49:01;;;;;;;1.65;1.33;;;24.40;57.30;;;;;;5051235;28;20217;-64
2022/08/27 02:51:27;;;;;;;3.47;1.45;;;24.40;57.30;;;;;;5050767;28;20201;-63
2022/08/27 02:53:53;;;;;;;1.65;1.50;;;24.40;57.30;;;;;;5052557;28;20269;-63
2022/08/27 02:56:18;;;;;;;1.40;1.15;;;24.40;57.30;;;;;;5055431;28;20175;-63
2022/08/27 02:58:44;;;;;;;2.85;1.75;;;24.40;57.30;;;;;;5054249;28;20175;-64
2022/08/27 03:01:10;;;;;;;1.60;1.40;;;24.40;57.30;;;;;;5055328;28;20181;-64
2022/08/27 03:03:36;;;;;;;2.72;1.55;;;24.40;57.30;;;;;;5054937;28;20703;-64
2022/08/27 03:06:01;;;;;;;2.25;1.60;;;24.40;57.30;;;;;;5054189;28;20187;-64
2022/08/27 03:08:27;;;;;;;1.73;1.15;;;24.40;57.30;;;;;;5054905;28;20634;-64
2022/08/27 03:10:54;;;;;;;1.83;1.30;;;24.40;57.30;;;;;;5054911;28;20174;-63
2022/08/27 03:13:19;;;;;;;1.70;1.40;;;24.40;57.30;;;;;;5053978;28;20591;-64
2022/08/27 03:15:45;;;;;;;2.20;1.48;;;24.40;57.30;;;;;;5054788;28;20249;-64
2022/08/27 03:18:17;;;;;;;1.58;1.20;;;24.30;57.30;;;;;;5055085;28;20199;-64
2022/08/27 03:20:44;;;;;;;1.85;1.27;;;24.40;57.30;;;;;;5053967;28;20186;-64
2022/08/27 03:23:10;;;;;;;2.20;1.80;;;24.40;57.30;;;;;;5054713;28;20326;-64
2022/08/27 03:25:36;;;;;;;2.75;1.52;;;24.40;57.30;;;;;;5054025;28;20304;-63
2022/08/27 03:28:01;;;;;;;2.53;1.58;;;24.30;57.30;;;;;;5054451;28;20171;-64
2022/08/27 03:30:27;;;;;;;3.13;1.73;;;24.30;57.30;;;;;;5054768;28;20179;-64
2022/08/27 03:32:52;;;;;;;2.60;1.58;;;24.30;57.30;;;;;;5053761;28;20526;-63
2022/08/27 03:35:18;;;;;;;1.40;1.30;;;24.30;57.30;;;;;;5054690;28;20740;-64
2022/08/27 03:37:44;;;;;;;1.55;1.45;;;24.30;57.30;;;;;;5054305;28;20171;-64
2022/08/27 03:40:10;;;;;;;2.63;1.60;;;24.30;57.20;;;;;;5053786;28;20258;-64
2022/08/27 03:42:35;;;;;;;1.60;1.40;;;24.30;57.20;;;;;;5054716;28;20186;-64
2022/08/27 03:45:01;;;;;;;1.40;1.30;;;24.30;57.30;;;;;;5054355;28;20178;-64
2022/08/27 03:47:26;;;;;;;1.90;1.45;;;24.30;57.20;;;;;;5053776;28;20242;-64
2022/08/27 03:49:52;;;;;;;1.58;1.48;;;24.30;57.20;;;;;;5054310;28;20248;-63
2022/08/27 03:52:18;;;;;;;2.15;1.45;;;24.30;57.20;;;;;;5054351;28;20206;-63
2022/08/27 03:54:44;;;;;;;2.53;1.85;;;24.30;57.20;;;;;;5053322;28;20211;-64
2022/08/27 03:57:10;;;;;;;2.17;1.67;;;24.30;57.20;;;;;;5054412;28;20186;-64
2022/08/27 03:59:35;;;;;;;1.52;1.40;;;24.30;57.20;;;;;;5054328;28;20175;-64
2022/08/27 04:02:01;;;;;;;1.58;1.48;;;24.30;57.20;;;;;;5053355;28;20167;-64
2022/08/27 04:04:27;;;;;;;2.08;1.40;;;24.30;57.20;;;;;;5053742;28;20529;-64
2022/08/27 04:06:52;;;;;;;1.63;1.40;;;24.30;57.20;;;;;;5053817;28;20190;-64
2022/08/27 04:09:18;;;;;;;2.72;1.48;;;24.30;57.20;;;;;;5053155;28;20167;-64
2022/08/27 04:11:43;;;;;;;1.85;1.50;;;24.30;57.20;;;;;;5053591;28;20237;-63
2022/08/27 04:14:09;;;;;;;1.85;1.73;;;24.20;57.20;;;;;;5054045;28;20175;-64
2022/08/27 04:16:35;;;;;;;2.45;1.90;;;24.20;57.20;;;;;;5053113;28;20254;-64
2022/08/27 04:19:01;;;;;;;2.28;1.75;;;24.30;57.20;;;;;;5053747;28;20553;-64
2022/08/27 04:21:27;;;;;;;2.08;1.50;;;24.30;57.20;;;;;;5053730;28;20202;-64
2022/08/27 04:23:52;;;;;;;1.60;1.33;;;24.20;57.20;;;;;;5052645;28;20247;-64
2022/08/27 04:26:18;;;;;;;2.63;1.50;;;24.20;57.20;;;;;;5053984;28;20244;-64
2022/08/27 04:28:43;;;;;;;1.65;1.40;;;24.20;57.30;;;;;;5053482;28;20199;-63
2022/08/27 04:31:09;;;;;;;2.90;1.70;;;24.20;57.10;;;;;;5053162;28;20175;-63
2022/08/27 04:33:34;;;;;;;1.95;1.33;;;24.20;57.20;;;;;;5053551;28;20556;-63
2022/08/27 04:36:02;;;;;;;2.35;1.85;;;24.20;57.20;;;;;;5052406;28;20215;-64
2022/08/27 04:38:28;;;;;;;2.50;1.60;;;24.20;57.20;;;;;;5053369;28;20183;-64
2022/08/27 04:43:37;;;;;;;2.17;1.50;;;24.20;57.20;;;;;;5052596;28;20182;-64
2022/08/27 04:46:03;;;;;;;3.22;1.60;;;24.20;57.20;;;;;;5053217;28;20175;-64
2022/08/27 04:48:28;;;;;;;1.98;1.63;;;24.20;57.10;;;;;;5053223;28;20711;-64
2022/08/27 04:50:54;;;;;;;2.35;1.73;;;24.20;57.20;;;;;;5052327;28;20175;-64
2022/08/27 04:53:19;;;;;;;1.95;1.63;;;24.20;57.10;;;;;;5053184;28;20629;-64
2022/08/27 04:55:52;;;;;;;1.92;1.55;;;24.20;57.10;;;;;;5052944;28;20207;-63
2022/08/27 04:58:19;;;;;;;3.95;1.77;;;24.20;57.20;;;;;;5052277;28;20687;-64
2022/08/27 05:00:53;;;;;;;2.50;1.70;;;24.20;57.20;;;;;;5052764;28;20630;-64
2022/08/27 05:03:22;;;;;;;2.25;1.90;;;24.20;57.10;;;;;;5053186;28;20179;-64
2022/08/27 05:05:48;;;;;;;1.92;1.45;;;24.20;57.20;;;;;;5051908;28;20228;-64
2022/08/27 05:08:13;;;;;;;1.98;1.60;;;24.20;57.10;;;;;;5053122;28;20174;-64
2022/08/27 05:10:40;;;;;;;1.83;1.38;;;24.20;57.20;;;;;;5052857;28;20175;-63
2022/08/27 05:13:05;;;;;;;2.08;1.60;;;24.20;57.20;;;;;;5051965;28;20179;-64
2022/08/27 05:15:31;;;;;;;2.55;1.90;;;24.20;57.20;;;;;;5052621;28;20230;-64
2022/08/27 05:17:59;;;;;;;2.08;1.83;;;24.20;57.20;;;;;;5051975;28;20180;-64
2022/08/27 05:20:25;;;;;;;1.92;1.77;;;24.20;57.20;;;;;;5052369;28;20184;-64
2022/08/27 05:22:51;;;;;;;2.78;1.45;;;24.20;57.20;;;;;;5052528;28;20221;-64
2022/08/27 05:25:16;;;;;;;2.17;1.98;;;24.20;57.20;;;;;;5052234;28;20266;-64
2022/08/27 05:27:42;;;;;;;2.47;2.00;;;24.20;57.10;;;;;;5052504;28;20171;-64
2022/08/27 05:30:08;;;;;;;1.85;1.50;;;24.10;57.10;;;;;;5052373;28;20171;-64
2022/08/27 05:32:33;;;;;;;1.88;1.77;;;24.20;57.10;;;;;;5051687;28;20179;-63
2022/08/27 05:34:59;;;;;;;2.22;1.90;;;24.20;57.10;;;;;;5052188;28;20568;-63
2022/08/27 05:37:25;;;;;;;2.58;1.63;;;24.20;57.10;;;;;;5052262;28;20645;-64
2022/08/27 05:39:51;;;;;;;2.38;1.75;;;24.10;57.10;;;;;;5051673;28;20207;-64
2022/08/27 05:42:18;;;;;;;2.25;1.88;;;24.20;57.00;;;;;;5052418;28;20206;-65
2022/08/27 05:44:43;;;;;;;1.98;1.77;;;24.20;57.10;;;;;;5052006;28;20183;-65
2022/08/27 05:47:09;;;;;;;2.17;1.55;;;24.20;57.10;;;;;;5051582;28;20616;-64
2022/08/27 05:49:34;;;;;;;1.75;1.65;;;24.20;57.00;;;;;;5052042;28;20179;-63
2022/08/27 05:52:00;;;;;;;1.83;1.70;;;24.20;57.00;;;;;;5052125;28;20171;-63
2022/08/27 05:54:25;;;;;;;1.92;1.77;;;24.20;57.00;;;;;;5051328;28;20195;-64
2022/08/27 05:56:51;;;;;;;2.60;1.70;;;24.20;57.00;;;;;;5051959;28;20543;-64
2022/08/27 06:02:01;;;;;;;2.40;1.80;;;24.20;57.00;;;;;;5051211;28;20225;-64
2022/08/27 06:04:26;;;;;;;2.08;1.88;;;24.20;56.90;;;;;;5052014;28;20609;-64
2022/08/27 06:06:52;;;;;;;2.10;1.88;;;24.20;56.90;;;;;;5051864;28;20194;-64
2022/08/27 06:09:20;;;;;;;1.70;1.60;;;24.20;57.00;;;;;;5051472;28;20182;-63
2022/08/27 06:11:46;;;;;;;2.97;2.05;;;24.20;56.90;;;;;;5052076;28;20179;-63
2022/08/27 06:14:12;;;;;;;2.97;2.15;;;24.20;56.80;;;;;;5051767;28;20253;-64
2022/08/27 06:16:38;;;;;;;2.30;1.73;;;24.20;56.80;;;;;;5051093;28;20653;-65
2022/08/27 06:19:04;;;;;;;3.03;1.90;;;24.20;56.70;;;;;;5051919;28;20241;-65
2022/08/27 06:21:29;;;;;;;4.22;1.60;;;24.20;56.60;;;;;;5051422;28;20206;-65
2022/08/27 06:23:55;;;;;;;3.25;1.77;;;24.20;56.60;;;;;;5051415;28;20241;-65
2022/08/27 06:26:21;;;;;;;2.47;1.90;;;24.30;56.60;;;;;;5051814;28;20660;-64
2022/08/27 06:28:48;;;;;;;3.72;2.00;;;24.30;56.40;;;;;;5052317;28;20183;-62
2022/08/27 06:31:20;;;;;;;6.70;2.58;;;24.30;56.50;;;;;;5055805;28;20196;-62
2022/08/27 06:33:46;;;;;;;1.88;1.60;;;24.30;56.50;;;;;;5055810;28;20182;-62
2022/08/27 06:36:13;;;;;;;2.97;1.98;;;24.20;56.60;;;;;;5055127;28;20211;-62
2022/08/27 06:38:39;;;;;;;4.97;2.42;;;24.20;56.50;;;;;;5055554;28;20188;-63
2022/08/27 06:41:07;;;;;;;2.67;2.10;;;24.20;56.50;;;;;;5055534;28;20179;-63
2022/08/27 06:43:37;;;;;;;2.60;2.17;;;24.20;56.30;;;;;;5054746;28;20181;-63
2022/08/27 06:46:08;;;;;;;3.00;2.25;;;24.30;56.00;;;;;;5055322;28;20622;-63
2022/08/27 06:48:33;;;;;;;3.80;2.15;;;24.30;55.70;;;;;;5055551;28;20182;-64
2022/08/27 06:50:59;;;;;;;5.47;2.20;;;24.30;55.70;;;;;;5054718;28;20171;-63
2022/08/27 06:53:24;;;;;;;5.55;2.30;;;24.30;55.70;;;;;;5055376;28;20177;-63
2022/08/27 06:55:50;;;;;;;7.72;2.70;;;24.30;55.60;;;;;;5055166;28;20207;-63
2022/08/27 06:58:16;;;;;;;4.28;2.13;;;24.30;55.60;;;;;;5054626;28;20190;-63
2022/08/27 07:00:42;;;;;;;3.10;1.77;;;24.30;55.60;;;;;;5055445;28;20554;-64
2022/08/27 07:03:08;;;;;;;2.70;1.83;;;24.30;55.40;;;;;;5055038;28;20566;-64
2022/08/27 07:05:35;;;;;;;5.97;2.38;;;24.30;55.40;;;;;;5054501;28;20179;-63
2022/08/27 07:08:01;;;;;;;3.33;1.95;;;24.40;55.40;;;;;;5055173;28;20179;-63
2022/08/27 07:10:26;;;;;;;3.58;1.77;;;24.40;55.60;;;;;;5055096;28;20171;-63
2022/08/27 07:12:52;;;;;;;4.13;1.70;;;24.40;55.40;;;;;;5054166;28;20175;-63
2022/08/27 07:15:18;;;;;;;3.00;1.92;;;24.40;55.60;;;;;;5055159;28;20215;-64
2022/08/27 07:17:43;;;;;;;2.58;1.77;;;24.50;55.00;;;;;;5054414;28;20350;-64
2022/08/27 07:20:12;;;;;;;3.47;2.08;;;24.50;55.10;;;;;;5055069;28;20293;-64
2022/08/27 07:22:39;;;;;;;3.10;1.90;;;24.50;55.10;;;;;;5054546;28;20727;-64
2022/08/27 07:25:05;;;;;;;2.58;1.95;;;24.60;55.00;;;;;;5053859;28;20266;-64
2022/08/27 07:27:31;;;;;;;3.97;2.03;;;24.60;55.00;;;;;;5054790;28;20270;-63
2022/08/27 07:29:57;;;;;;;5.80;2.00;;;24.60;55.10;;;;;;5054685;28;20229;-63
2022/08/27 07:32:23;;;;;;;5.53;1.60;;;24.60;55.10;;;;;;5053989;28;20645;-63
2022/08/27 07:34:48;;;;;;;3.85;2.30;;;24.70;55.00;;;;;;5054405;28;20290;-63
2022/08/27 07:37:14;;;;;;;2.65;1.52;;;24.70;54.90;;;;;;5054606;28;20183;-63
2022/08/27 07:39:39;;;;;;;4.50;1.65;;;24.70;54.90;;;;;;5053278;28;20194;-63
2022/08/27 07:44:52;;;;;;;2.50;1.50;;;24.70;54.80;;;;;;5054311;28;20229;-63
2022/08/27 07:47:17;;;;;;;2.35;1.50;;;24.80;54.70;;;;;;5053664;28;20206;-63
2022/08/27 07:49:43;;;;;;;5.63;1.70;;;24.80;54.60;;;;;;5054294;28;20202;-63
2022/08/27 07:52:08;;;;;;;1.90;1.58;;;24.80;54.40;;;;;;5054295;28;20245;-63
2022/08/27 07:54:34;;;;;;;4.07;2.08;;;24.80;54.30;;;;;;5053415;28;20199;-63
2022/08/27 07:57:00;;;;;;;4.13;1.73;;;24.90;54.30;;;;;;5053797;28;20194;-63
2022/08/27 07:59:26;;;;;;;3.55;1.83;;;24.90;54.20;;;;;;5054294;28;20179;-64
2022/08/27 08:01:52;;;;;;;4.03;1.60;;;24.90;54.20;;;;;;5053342;28;20171;-64
2022/08/27 08:04:17;;;;;;;4.22;1.40;;;25.00;54.10;;;;;;5054245;28;20378;-65
2022/08/27 08:06:43;;;;;;;4.10;1.60;;;25.00;54.10;;;;;;5052969;28;20259;-64
2022/08/27 08:09:08;;;;;;;2.05;1.50;;;25.00;54.00;;;;;;5053078;28;20182;-64
2022/08/27 08:11:34;;;;;;;3.53;1.40;;;25.10;54.10;;;;;;5054080;28;20231;-63
2022/08/27 08:14:00;;;;;;;2.10;1.50;;;25.00;54.00;;;;;;5053303;28;20198;-64
2022/08/27 08:16:25;;;;;;;3.78;1.60;;;25.10;54.00;;;;;;5053914;28;20223;-64
2022/08/27 08:18:51;;;;;;;4.20;1.63;;;25.10;53.80;;;;;;5053673;28;20175;-63
2022/08/27 08:21:16;;;;;;;2.38;1.40;;;25.10;53.70;;;;;;5053192;28;20524;-63
2022/08/27 08:23:42;;;;;;;3.38;1.83;;;25.10;53.60;;;;;;5053307;28;20270;-62
2022/08/27 08:26:08;;;;;;;3.33;1.50;;;25.20;53.60;;;;;;5053777;28;20203;-63
2022/08/27 08:28:34;;;;;;;5.45;1.88;;;25.10;53.60;;;;;;5053019;28;20246;-61
2022/08/27 08:31:00;;;;;;;4.72;1.45;;;25.20;53.60;;;;;;5053534;28;20686;-64
2022/08/27 08:33:26;;;;;;;5.40;1.70;;;25.20;53.40;;;;;;5053584;28;20649;-62
2022/08/27 08:35:52;;;;;;;5.03;1.33;;;25.20;53.50;;;;;;5052731;28;20309;-62
2022/08/27 08:38:17;;;;;;;4.38;1.30;;;25.20;53.50;;;;;;5053510;28;20261;-63
2022/08/27 08:40:49;;;;;;;5.15;1.52;;;25.20;53.40;;;;;;5053638;28;20784;-62
2022/08/27 08:43:39;;;;;;;6.32;1.90;;;25.20;53.40;;;;;;5035164;28;20528;-63
2022/08/27 08:46:16;;;;;;;3.22;1.15;;;25.10;53.50;;;;;;5045584;28;20536;-62
2022/08/27 08:48:44;;;;;;;4.05;1.80;;;25.10;53.40;;;;;;5036520;28;20630;-62
2022/08/27 08:51:20;;;;;;;2.72;1.20;;;25.10;53.50;;;;;;5034142;28;20622;-62
2022/08/27 08:53:54;;;;;;;3.25;1.38;;;25.00;53.40;;;;;;5036237;28;20206;-62
2022/08/27 08:56:42;;;;;;;2.00;1.00;;;25.00;53.30;;;;;;5034671;28;20214;-63
2022/08/27 08:59:17;;;;;;;2.75;1.27;;;25.00;53.30;;;;;;5052896;28;20193;-63
2022/08/27 09:01:44;;;;;;;6.25;1.95;;;25.00;53.20;;;;;;5039713;28;20195;-62
2022/08/27 09:04:09;;;;;;;2.45;1.15;;;24.90;53.20;;;;;;5034807;28;20301;-64
2022/08/27 09:06:49;;;;;;;2.45;1.08;;;25.00;53.10;;;;;;5035182;28;20175;-64
2022/08/27 09:09:22;;;;;;;3.28;1.33;;;25.00;53.00;;;;;;5052969;28;20179;-63
2022/08/27 09:11:58;;;;;;;4.93;1.55;;;25.00;53.10;;;;;;5051982;28;20170;-63
2022/08/27 09:14:32;;;;;;;3.97;1.25;;;25.00;53.20;;;;;;5035064;28;20175;-64
2022/08/27 09:16:59;;;;;;;4.07;1.20;;;25.00;53.30;;;;;;5052588;28;20174;-64
2022/08/27 09:19:26;;;;;;;3.20;1.58;;;24.90;53.30;;;;;;5052043;28;20187;-64
2022/08/27 09:22:18;;;;;;;3.60;1.58;;;24.90;53.20;;;;;;5052479;28;20672;-64
2022/08/27 09:24:51;;;;;;;1.50;1.08;;;24.90;53.20;;;;;;5023254;28;20290;-64
2022/08/27 09:27:17;;;;;;;4.03;1.80;;;24.90;53.10;;;;;;5052679;28;20187;-64
2022/08/27 09:29:48;;;;;;;3.28;1.60;;;24.80;52.90;;;;;;5034913;28;20183;-63
2022/08/27 09:32:13;;;;;;;2.42;1.02;;;24.90;52.90;;;;;;5051684;28;20233;-63
2022/08/27 09:34:40;;;;;;;2.85;1.20;;;24.80;52.90;;;;;;5052326;28;20218;-63
2022/08/27 09:37:16;;;;;;;2.88;1.08;;;24.90;52.90;;;;;;5052481;28;20223;-64
2022/08/27 09:40:05;;;;;;;3.78;1.10;;;25.00;53.00;;;;;;5034037;28;20301;-64
2022/08/27 09:42:38;;;;;;;1.55;1.10;;;25.10;52.60;;;;;;5052229;28;20225;-64
2022/08/27 09:45:09;;;;;;;3.17;1.67;;;25.10;52.60;;;;;;5052082;28;20183;-64
2022/08/27 09:47:45;;;;;;;2.88;1.33;;;25.10;52.50;;;;;;5051451;28;20190;-63
2022/08/27 09:50:11;;;;;;;2.92;1.38;;;25.10;52.70;;;;;;5052346;28;20187;-63
2022/08/27 09:52:54;;;;;;;2.30;1.30;;;25.00;52.80;;;;;;5051520;28;20240;-64
2022/08/27 09:55:30;;;;;;;3.80;1.13;;;25.00;52.80;;;;;;5035685;28;20215;-64
2022/08/27 09:57:56;;;;;;;2.70;1.20;;;25.00;52.90;;;;;;5052056;28;20182;-64
2022/08/27 10:00:38;;;;;;;2.70;1.33;;;25.00;52.90;;;;;;5033623;28;20228;-64
2022/08/27 10:03:04;;;;;;;2.72;1.27;;;25.00;52.90;;;;;;5051745;28;20194;-64
2022/08/27 10:05:34;;;;;;;1.83;1.02;;;24.90;52.80;;;;;;5052029;28;20275;-64
2022/08/27 10:08:13;;;;;;;2.65;1.20;;;25.00;52.90;;;;;;5051411;28;20171;-63
2022/08/27 10:10:54;;;;;;;3.90;1.20;;;25.10;52.60;;;;;;5034401;28;20182;-64
2022/08/27 10:13:50;;;;;;;3.42;1.40;;;25.20;52.40;;;;;;5052189;28;20202;-64
2022/08/27 10:16:41;;;;;;;3.63;1.20;;;25.20;52.40;;;;;;5034346;28;20238;-64
2022/08/27 10:19:40;;;;;;;1.30;0.88;;;25.10;52.50;;;;;;5051972;28;20178;-64
2022/08/27 10:22:10;;;;;;;2.25;1.27;;;25.10;52.60;;;;;;5025962;28;20186;-64
2022/08/27 10:24:42;;;;;;;2.38;1.05;;;25.00;52.70;;;;;;5033845;28;20277;-64
2022/08/27 10:27:33;;;;;;;0.98;0.88;;;25.00;52.70;;;;;;5051670;28;20194;-64
2022/08/27 10:30:19;;;;;;;1.52;1.02;;;25.00;52.60;;;;;;5033792;28;20641;-63
2022/08/27 10:32:52;;;;;;;1.25;0.98;;;25.00;52.70;;;;;;5051629;28;20230;-63
2022/08/27 10:35:24;;;;;;;1.88;1.08;;;25.00;52.70;;;;;;5051222;28;20221;-63
2022/08/27 10:37:58;;;;;;;2.65;1.13;;;25.00;52.70;;;;;;5033784;28;20255;-64
2022/08/27 10:40:35;;;;;;;3.13;1.10;;;25.00;52.70;;;;;;5034904;28;20183;-64
2022/08/27 10:43:31;;;;;;;2.03;1.10;;;25.00;52.60;;;;;;5050929;28;20201;-64
2022/08/27 10:46:05;;;;;;;1.27;1.10;;;25.20;52.50;;;;;;5028506;28;20187;-64
2022/08/27 10:48:37;;;;;;;1.55;1.10;;;25.30;52.40;;;;;;5051755;28;20228;-63
2022/08/27 10:51:23;;;;;;;2.08;1.10;;;25.30;52.40;;;;;;5034144;28;20282;-63
2022/08/27 10:53:58;;;;;;;1.33;0.98;;;25.20;52.50;;;;;;5033565;28;20186;-63
2022/08/27 10:56:32;;;;;;;1.63;1.20;;;25.10;52.40;;;;;;5050731;28;20356;-64
2022/08/27 10:59:32;;;;;;;2.35;1.15;;;25.10;52.50;;;;;;5051646;28;20191;-64
2022/08/27 11:02:29;;;;;;;2.17;1.27;;;25.10;52.50;;;;;;5033402;28;20668;-64
2022/08/27 11:05:01;;;;;;;1.77;1.13;;;25.00;52.60;;;;;;5033022;28;20176;-63
2022/08/27 11:07:29;;;;;;;1.42;0.95;;;25.10;52.60;;;;;;5051523;28;20625;-63
2022/08/27 11:10:00;;;;;;;1.83;0.82;;;25.10;52.60;;;;;;5032997;28;20191;-64
2022/08/27 11:12:35;;;;;;;1.45;1.10;;;25.10;52.60;;;;;;5033459;28;20183;-64
2022/08/27 11:15:09;;;;;;;1.50;1.02;;;25.10;52.60;;;;;;5035262;28;20242;-64
2022/08/27 11:17:39;;;;;;;1.85;1.10;;;25.10;52.50;;;;;;5035947;28;20590;-64
2022/08/27 11:20:31;;;;;;;2.22;1.10;;;25.10;52.50;;;;;;5054930;28;20186;-64
2022/08/27 11:23:01;;;;;;;1.60;0.82;;;25.10;52.60;;;;;;5036848;28;20301;-64
2022/08/27 11:25:45;;;;;;;1.92;1.00;;;25.10;52.40;;;;;;5036389;28;20167;-64
2022/08/27 11:28:11;;;;;;;1.10;0.98;;;25.10;52.20;;;;;;5037380;28;20179;-63
2022/08/27 11:31:00;;;;;;;2.25;0.95;;;25.10;52.10;;;;;;5054695;28;20175;-63
2022/08/27 11:33:36;;;;;;;1.52;0.88;;;25.00;52.30;;;;;;5036670;28;20621;-63
2022/08/27 11:36:18;;;;;;;3.05;1.30;;;25.10;52.20;;;;;;5036714;28;20246;-64
2022/08/27 11:39:03;;;;;;;3.30;1.33;;;25.00;52.20;;;;;;5035893;28;20213;-64
2022/08/27 11:41:53;;;;;;;1.10;0.90;;;25.00;52.30;;;;;;5054370;28;20228;-64
2022/08/27 11:44:21;;;;;;;1.55;1.00;;;25.10;52.40;;;;;;5054682;28;20369;-64
2022/08/27 11:46:48;;;;;;;2.03;1.20;;;25.10;52.20;;;;;;5035803;28;20186;-64
2022/08/27 11:49:40;;;;;;;2.35;1.05;;;25.00;52.00;;;;;;5054362;28;20224;-63
2022/08/27 11:52:08;;;;;;;2.88;1.10;;;25.10;52.20;;;;;;5035383;28;20186;-63
2022/08/27 11:54:47;;;;;;;1.10;0.80;;;25.10;52.10;;;;;;5054007;28;20211;-64
2022/08/27 11:57:14;;;;;;;1.50;0.90;;;25.10;52.30;;;;;;5054371;28;20202;-64
2022/08/27 11:59:41;;;;;;;1.42;1.13;;;25.10;52.20;;;;;;5053143;28;20541;-64
2022/08/27 12:02:16;;;;;;;2.63;1.50;;;25.10;52.20;;;;;;5036154;28;20267;-64
2022/08/27 12:04:42;;;;;;;1.52;0.90;;;25.00;52.20;;;;;;5054178;28;20198;-64
2022/08/27 12:07:13;;;;;;;2.15;1.25;;;25.00;52.20;;;;;;5053278;28;20274;-63
2022/08/27 12:09:50;;;;;;;2.03;1.30;;;25.00;52.30;;;;;;5053883;28;20175;-64
2022/08/27 12:12:31;;;;;;;2.10;1.10;;;25.00;52.50;;;;;;5037096;28;20171;-64
2022/08/27 12:15:16;;;;;;;1.75;1.17;;;25.00;52.40;;;;;;5052753;28;20207;-64
2022/08/27 12:18:05;;;;;;;1.73;1.17;;;25.00;52.40;;;;;;5035872;28;20535;-64
2022/08/27 12:20:48;;;;;;;2.55;1.30;;;25.00;52.40;;;;;;5035376;28;20171;-65
2022/08/27 12:23:42;;;;;;;1.13;1.02;;;25.00;52.20;;;;;;5032317;28;20705;-64
2022/08/27 12:26:30;;;;;;;2.30;1.10;;;25.00;52.30;;;;;;5033669;28;20183;-64
2022/08/27 12:29:18;;;;;;;1.95;1.10;;;25.00;52.30;;;;;;5031540;28;20179;-63
2022/08/27 12:31:44;;;;;;;1.48;1.10;;;25.00;52.20;;;;;;5033391;28;20176;-63
2022/08/27 12:34:28;;;;;;;1.33;1.00;;;24.90;52.20;;;;;;5033129;28;20188;-63
2022/08/27 12:36:54;;;;;;;1.90;1.00;;;25.00;52.20;;;;;;5033517;28;20230;-63
2022/08/27 12:39:25;;;;;;;3.30;1.20;;;24.90;52.20;;;;;;5033374;28;20175;-64
2022/08/27 12:41:52;;;;;;;1.48;1.17;;;24.90;52.20;;;;;;5031476;28;20211;-64
2022/08/27 12:44:27;;;;;;;2.40;1.20;;;24.90;52.20;;;;;;5033644;28;20242;-63
2022/08/27 12:47:02;;;;;;;1.27;1.17;;;24.90;52.30;;;;;;5033415;28;20194;-63
2022/08/27 12:49:33;;;;;;;2.65;1.40;;;24.90;52.30;;;;;;5031233;28;20637;-63
2022/08/27 12:52:00;;;;;;;1.65;1.27;;;24.90;52.30;;;;;;5031991;28;20183;-62
2022/08/27 12:54:52;;;;;;;1.70;1.08;;;24.90;52.20;;;;;;5033002;28;20350;-63
2022/08/27 12:57:26;;;;;;;3.67;1.20;;;24.90;52.20;;;;;;5031649;28;20211;-63
2022/08/27 13:00:09;;;;;;;1.35;1.00;;;24.90;52.20;;;;;;5032114;28;20540;-63
2022/08/27 13:02:53;;;;;;;1.77;1.20;;;25.00;52.20;;;;;;5031162;28;20226;-63
2022/08/27 13:05:20;;;;;;;2.55;1.17;;;24.90;52.20;;;;;;5033397;28;20261;-63
2022/08/27 13:07:46;;;;;;;1.23;1.05;;;25.00;52.20;;;;;;5032862;28;20306;-63
2022/08/27 13:10:16;;;;;;;1.83;0.90;;;25.00;52.20;;;;;;5032333;28;20251;-63